Time;durP1;ratioP1;P1;durP2;ratioP2;P2;SDS_P1;SDS_P2;PMS_P1;PMS_P2;Temp;Humidity;BMP_temperature;BMP_pressure;BME280_temperature;BME280_humidity;BME280_pressure;Samples;Min_cycle;Max_cycle;Signal;HPM_P1;HPM_P2
2023/10/14 00:00:28;;;;;;;4.60;0.40;;;;;;;14.04;95.49;99936.25;7404265;19;19922;-70
2023/10/14 00:03:01;;;;;;;1.92;0.45;;;;;;;14.03;95.84;99939.19;7404538;19;19944;-70
2023/10/14 00:05:30;;;;;;;1.83;0.52;;;;;;;14.02;95.85;99934.84;7403259;19;19919;-71
2023/10/14 00:07:59;;;;;;;3.70;0.68;;;;;;;14.02;95.92;99953.78;7404050;19;20345;-71
2023/10/14 00:10:29;;;;;;;3.63;0.47;;;;;;;14.00;95.91;99955.88;7403415;19;20305;-71
2023/10/14 00:12:58;;;;;;;4.15;0.73;;;;;;;14.01;96.03;99962.97;7404034;19;19950;-70
2023/10/14 00:15:34;;;;;;;3.95;0.50;;;;;;;13.96;94.78;99968.22;7402950;19;19943;-71
2023/10/14 00:18:02;;;;;;;7.25;0.68;;;;;;;13.92;94.80;99970.53;7404076;19;19925;-71
2023/10/14 00:20:35;;;;;;;3.75;0.80;;;;;;;13.87;95.38;99983.91;7402947;19;20334;-70
2023/10/14 00:23:04;;;;;;;4.55;0.85;;;;;;;13.85;95.97;99993.31;7403491;19;20010;-71
2023/10/14 00:25:34;;;;;;;2.75;0.50;;;;;;;13.82;95.93;100012.66;7404426;19;19918;-70
2023/10/14 00:28:12;;;;;;;6.38;0.73;;;;;;;13.77;95.37;100016.03;7403822;19;19970;-71
2023/10/14 00:30:43;;;;;;;5.22;0.90;;;;;;;13.70;95.42;100014.41;7404114;19;19967;-71
2023/10/14 00:33:12;;;;;;;4.82;0.98;;;;;;;13.68;95.16;100021.94;7403781;19;19927;-71
2023/10/14 00:35:42;;;;;;;2.30;0.50;;;;;;;13.63;95.41;100028.00;7403257;19;19925;-71
2023/10/14 00:38:15;;;;;;;6.63;0.85;;;;;;;13.56;94.64;100038.84;7403017;19;20281;-70
2023/10/14 00:40:45;;;;;;;5.95;1.13;;;;;;;13.47;93.91;100037.44;7403796;19;20656;-70
2023/10/14 00:43:14;;;;;;;7.95;0.80;;;;;;;13.44;93.17;100045.16;7403522;19;19950;-70
2023/10/14 00:45:45;;;;;;;4.85;1.08;;;;;;;13.40;92.57;100050.19;7403539;19;19939;-71
2023/10/14 00:48:19;;;;;;;3.40;0.60;;;;;;;13.34;92.48;100048.31;7402850;19;19942;-71
2023/10/14 00:50:50;;;;;;;3.00;0.55;;;;;;;13.29;93.32;100058.97;7403171;19;20470;-71
2023/10/14 00:53:20;;;;;;;2.03;0.73;;;;;;;13.26;92.53;100061.25;7403507;19;19922;-71
2023/10/14 00:55:54;;;;;;;5.28;0.90;;;;;;;13.19;91.65;100055.91;7401967;19;19974;-71
2023/10/14 00:58:24;;;;;;;1.15;0.43;;;;;;;13.16;92.28;100072.53;7403665;19;19962;-70
2023/10/14 01:01:01;;;;;;;4.53;0.80;;;;;;;13.14;92.23;100070.06;7402909;19;20304;-70
2023/10/14 01:03:31;;;;;;;3.70;0.80;;;;;;;13.09;91.65;100082.50;7403030;19;19940;-71
2023/10/14 01:06:07;;;;;;;8.65;1.35;;;;;;;13.03;91.12;100083.38;7403370;19;19907;-71
2023/10/14 01:08:38;;;;;;;4.43;0.88;;;;;;;13.00;91.85;100089.19;7402725;19;19922;-70
2023/10/14 01:11:07;;;;;;;6.13;1.02;;;;;;;12.96;91.82;100079.84;7403591;19;19910;-71
2023/10/14 01:13:36;;;;;;;3.40;0.98;;;;;;;12.93;91.82;100093.78;7402324;19;19936;-71
2023/10/14 01:16:10;;;;;;;5.47;1.17;;;;;;;12.89;91.23;100098.78;7402961;19;20274;-71
2023/10/14 01:18:39;;;;;;;3.60;1.00;;;;;;;12.81;90.81;100099.03;7402030;19;20290;-70
2023/10/14 01:21:09;;;;;;;9.43;1.00;;;;;;;12.78;90.77;100106.69;7403010;19;19929;-70
2023/10/14 01:23:45;;;;;;;3.80;0.88;;;;;;;12.72;90.04;100119.19;7403280;19;20523;-71
2023/10/14 01:26:14;;;;;;;8.15;1.30;;;;;;;12.69;90.58;100120.44;7402623;19;19919;-70
2023/10/14 01:28:52;;;;;;;4.50;0.73;;;;;;;12.67;90.74;100127.94;7402840;19;19918;-71
2023/10/14 01:31:57;;;;;;;8.07;0.95;;;;;;;12.57;88.98;100132.91;7402405;19;20352;-70
2023/10/14 01:34:29;;;;;;;3.70;1.00;;;;;;;12.59;90.58;100130.00;7402130;19;19922;-71
2023/10/14 01:37:12;;;;;;;;;;;;;;;12.41;90.07;100130.63;7405445;19;20274;-71
2023/10/14 01:39:48;;;;;;;4.40;0.80;;;;;;;12.50;90.35;100128.56;7402014;19;19922;-70
2023/10/14 01:42:18;;;;;;;6.68;1.25;;;;;;;12.48;90.85;100130.63;7402351;19;19925;-70
2023/10/14 01:44:47;;;;;;;5.55;1.23;;;;;;;12.46;89.94;100130.00;7402593;19;19926;-71
2023/10/14 01:47:17;;;;;;;5.82;0.90;;;;;;;12.43;90.13;100139.34;7401674;19;19937;-70
2023/10/14 01:49:45;;;;;;;5.78;1.05;;;;;;;12.42;90.01;100136.88;7401908;19;19970;-70
2023/10/14 01:52:19;;;;;;;5.38;1.35;;;;;;;12.38;89.55;100144.56;7401945;19;19919;-70
2023/10/14 01:54:51;;;;;;;6.43;1.05;;;;;;;12.34;88.47;100147.88;7402034;19;20353;-70
2023/10/14 01:57:23;;;;;;;3.97;1.00;;;;;;;12.31;88.74;100153.66;7401819;19;19924;-70
2023/10/14 01:59:52;;;;;;;4.55;0.70;;;;;;;12.30;88.41;100166.31;7401957;19;19915;-70
2023/10/14 02:02:22;;;;;;;2.78;0.90;;;;;;;12.27;88.12;100164.88;7400690;19;19955;-70
2023/10/14 02:04:56;;;;;;;6.13;1.13;;;;;;;12.27;88.13;100174.84;7401664;19;19970;-71
2023/10/14 02:07:26;;;;;;;10.00;1.73;;;;;;;12.21;87.58;100167.56;7398966;19;20265;-70
2023/10/14 02:09:57;;;;;;;8.43;1.83;;;;;;;12.17;87.18;100169.00;7401136;19;20324;-70
2023/10/14 02:12:26;;;;;;;8.65;1.70;;;;;;;12.15;87.97;100168.41;7401187;19;19926;-70
2023/10/14 02:15:00;;;;;;;5.13;0.93;;;;;;;12.11;87.49;100175.25;7400644;19;19990;-71
2023/10/14 02:17:29;;;;;;;8.02;1.35;;;;;;;12.07;87.36;100185.63;7401963;19;19923;-70
2023/10/14 02:20:19;;;;;;;5.57;1.10;;;;;;;12.03;86.73;100197.84;7400144;19;19928;-70
2023/10/14 02:22:49;;;;;;;6.70;1.13;;;;;;;12.00;87.08;100192.00;7401180;19;19911;-70
2023/10/14 02:25:20;;;;;;;5.70;1.20;;;;;;;11.97;85.64;100201.34;7401462;19;19959;-70
2023/10/14 02:27:50;;;;;;;11.13;1.23;;;;;;;11.96;86.35;100209.66;7398096;19;19939;-71
2023/10/14 02:30:20;;;;;;;9.02;2.08;;;;;;;11.93;85.95;100213.59;7400589;19;19922;-70
2023/10/14 02:32:49;;;;;;;4.55;1.00;;;;;;;11.91;86.58;100214.84;7400139;19;19915;-70
2023/10/14 02:35:17;;;;;;;6.45;1.08;;;;;;;11.87;85.48;100224.34;7400012;19;20322;-70
2023/10/14 02:37:49;;;;;;;4.88;1.52;;;;;;;11.84;85.46;100239.09;7400581;19;19906;-70
2023/10/14 02:40:24;;;;;;;10.60;2.42;;;;;;;11.82;84.81;100239.28;7400896;19;19915;-71
2023/10/14 02:42:57;;;;;;;8.15;1.98;;;;;;;11.81;84.66;100234.09;7400500;19;19918;-71
2023/10/14 02:45:27;;;;;;;4.50;0.98;;;;;;;11.78;84.07;100250.66;7400086;19;20250;-70
2023/10/14 02:48:01;;;;;;;5.50;1.05;;;;;;;11.77;84.29;100255.25;7400156;19;19915;-70
2023/10/14 02:50:31;;;;;;;8.15;1.13;;;;;;;11.77;84.01;100249.88;7400194;19;19944;-70
2023/10/14 02:53:06;;;;;;;7.03;1.15;;;;;;;11.75;85.06;100259.19;7400193;19;19915;-70
2023/10/14 02:55:57;;;;;;;4.22;1.05;;;;;;;11.71;84.22;100256.00;7399774;19;19922;-70
2023/10/14 02:58:26;;;;;;;6.90;1.08;;;;;;;11.69;84.71;100259.97;7399792;19;19971;-70
2023/10/14 03:00:59;;;;;;;;;;;;;;;11.53;82.54;100271.03;7402039;19;19915;-70
2023/10/14 03:03:29;;;;;;;4.03;1.10;;;;;;;11.63;85.01;100276.94;7399491;19;19929;-71
2023/10/14 03:06:05;;;;;;;4.72;1.13;;;;;;;11.58;83.77;100288.31;7400096;19;19918;-70
2023/10/14 03:08:34;;;;;;;9.10;1.10;;;;;;;11.55;85.18;100280.63;7399559;19;20269;-70
2023/10/14 03:11:16;;;;;;;7.18;0.90;;;;;;;11.49;84.23;100292.19;7399905;19;19915;-70
2023/10/14 03:13:45;;;;;;;2.47;0.80;;;;;;;11.44;84.64;100310.81;7398423;19;20237;-70
2023/10/14 03:16:18;;;;;;;6.25;1.35;;;;;;;11.38;84.23;100304.38;7398610;19;20246;-71
2023/10/14 03:18:46;;;;;;;9.75;1.25;;;;;;;11.35;85.29;100307.44;7402820;19;19949;-70
2023/10/14 03:21:27;;;;;;;6.80;1.38;;;;;;;11.31;85.20;100316.13;7404432;19;19944;-70
2023/10/14 03:23:57;;;;;;;8.25;1.50;;;;;;;11.26;85.38;100324.78;7404902;19;19926;-71
2023/10/14 03:26:32;;;;;;;4.95;0.90;;;;;;;11.23;84.61;100335.13;7404643;19;19915;-70
2023/10/14 03:29:04;;;;;;;6.05;0.98;;;;;;;11.19;85.11;100331.16;7404529;19;19944;-70
2023/10/14 03:31:35;;;;;;;4.50;1.02;;;;;;;11.19;85.39;100350.03;7404768;19;19922;-70
2023/10/14 03:34:08;;;;;;;8.02;1.00;;;;;;;11.19;84.91;100358.13;7404385;19;19914;-70
2023/10/14 03:36:42;;;;;;;4.22;0.88;;;;;;;11.18;84.85;100356.44;7404349;19;19910;-71
2023/10/14 03:39:21;;;;;;;9.90;1.05;;;;;;;11.16;84.98;100364.75;7404379;19;19919;-71
2023/10/14 03:41:52;;;;;;;7.30;1.00;;;;;;;11.13;84.97;100361.59;7404508;19;20291;-70
2023/10/14 03:44:23;;;;;;;6.63;1.13;;;;;;;11.11;85.02;100382.50;7404414;19;20420;-70
2023/10/14 03:46:59;;;;;;;8.93;1.58;;;;;;;11.09;85.20;100368.41;7404116;19;19914;-70
2023/10/14 03:49:29;;;;;;;5.10;1.42;;;;;;;11.08;84.78;100372.13;7404973;19;19919;-70
2023/10/14 03:51:58;;;;;;;5.88;1.55;;;;;;;11.07;84.59;100379.38;7403658;19;19919;-71
2023/10/14 03:54:30;;;;;;;8.82;1.48;;;;;;;11.07;84.64;100378.53;7403908;19;19923;-70
2023/10/14 03:57:03;;;;;;;6.75;0.75;;;;;;;11.06;84.37;100384.94;7403167;19;19926;-70
2023/10/14 03:59:33;;;;;;;6.93;1.00;;;;;;;11.04;84.83;100400.50;7404619;19;19919;-70
2023/10/14 04:02:05;;;;;;;7.60;1.30;;;;;;;11.03;84.20;100409.59;7403638;19;19934;-70
2023/10/14 04:04:34;;;;;;;6.63;1.02;;;;;;;11.00;84.38;100408.13;7403396;19;19918;-70
2023/10/14 04:09:51;;;;;;;8.77;1.45;;;;;;;10.95;84.70;100420.50;7403926;19;19914;-70
2023/10/14 04:12:36;;;;;;;7.38;1.67;;;;;;;10.92;84.48;100422.53;7403681;19;19936;-71
2023/10/14 04:15:23;;;;;;;8.68;1.00;;;;;;;10.90;84.98;100431.84;7403091;19;20179;-70
2023/10/14 04:17:55;;;;;;;6.88;1.55;;;;;;;10.86;85.23;100434.09;7403518;19;19922;-70
2023/10/14 04:20:29;;;;;;;6.85;0.80;;;;;;;10.86;85.10;100444.03;7403858;19;20290;-71
2023/10/14 04:22:58;;;;;;;11.40;1.38;;;;;;;10.82;85.00;100448.97;7403601;19;20352;-71
2023/10/14 04:25:41;;;;;;;14.00;3.63;;;;;;;10.80;85.00;100447.47;7403346;19;19914;-70
2023/10/14 04:28:30;;;;;;;7.60;0.95;;;;;;;10.77;85.18;100462.16;7404262;19;19921;-70
2023/10/14 04:31:00;;;;;;;8.18;0.90;;;;;;;10.75;84.92;100457.97;7402392;19;19937;-70
2023/10/14 04:33:44;;;;;;;7.13;0.93;;;;;;;10.73;84.75;100468.97;7404555;19;19926;-70
2023/10/14 04:39:13;;;;;;;11.25;1.55;;;;;;;10.70;84.77;100468.50;7402547;19;19931;-70
2023/10/14 04:44:36;;;;;;;4.40;1.45;;;;;;;10.68;84.48;100474.06;7403272;19;19922;-70
2023/10/14 04:47:04;;;;;;;7.78;1.35;;;;;;;10.68;84.82;100481.31;7403365;19;19917;-71
2023/10/14 04:49:42;;;;;;;8.82;1.33;;;;;;;10.67;85.07;100483.16;7403651;19;19994;-70
2023/10/14 04:52:11;;;;;;;8.95;1.27;;;;;;;10.65;85.01;100487.91;7402632;19;20022;-70
2023/10/14 04:54:51;;;;;;;6.40;1.00;;;;;;;10.64;84.45;100498.88;7403061;19;19947;-71
2023/10/14 04:57:24;;;;;;;6.25;1.10;;;;;;;10.64;84.89;100507.78;7403194;19;19929;-70
2023/10/14 04:59:56;;;;;;;5.22;0.93;;;;;;;10.65;83.98;100519.41;7402958;19;19918;-70
2023/10/14 05:02:30;;;;;;;9.70;1.48;;;;;;;10.67;84.49;100510.09;7403458;19;19943;-70
2023/10/14 05:04:59;;;;;;;9.27;1.50;;;;;;;10.68;84.27;100514.47;7402393;19;19922;-70
2023/10/14 05:07:28;;;;;;;10.70;1.33;;;;;;;10.72;84.28;100526.56;7403334;19;19918;-71
2023/10/14 05:10:07;;;;;;;4.97;1.00;;;;;;;10.75;84.25;100526.16;7402782;19;19948;-70
2023/10/14 05:12:40;;;;;;;6.43;1.33;;;;;;;10.78;83.87;100523.13;7402819;19;19970;-70
2023/10/14 05:15:19;;;;;;;6.63;1.20;;;;;;;10.78;83.62;100536.59;7402740;19;19930;-70
2023/10/14 05:17:51;;;;;;;6.38;1.27;;;;;;;10.77;83.69;100540.31;7402464;19;19927;-71
2023/10/14 05:20:27;;;;;;;9.60;1.33;;;;;;;10.77;84.04;100537.59;7403157;19;19973;-70
2023/10/14 05:22:56;;;;;;;9.77;1.73;;;;;;;10.77;84.13;100536.78;7402062;19;19949;-70
2023/10/14 05:25:27;;;;;;;9.38;1.45;;;;;;;10.75;84.05;100552.28;7402259;19;19914;-70
2023/10/14 05:28:04;;;;;;;4.93;0.93;;;;;;;10.76;84.09;100553.94;7401479;19;19918;-70
2023/10/14 05:30:38;;;;;;;13.60;1.50;;;;;;;10.74;83.96;100553.31;7402524;19;19918;-70
2023/10/14 05:33:13;;;;;;;9.45;1.20;;;;;;;10.70;84.47;100554.72;7402137;19;19922;-70
2023/10/14 05:35:44;;;;;;;8.18;1.20;;;;;;;10.66;84.31;100569.53;7401841;19;19923;-70
2023/10/14 05:38:14;;;;;;;4.50;1.13;;;;;;;10.63;84.81;100568.06;7401984;19;19919;-70
2023/10/14 05:40:43;;;;;;;6.85;0.90;;;;;;;10.59;84.76;100585.63;7400333;19;20276;-70
2023/10/14 05:43:12;;;;;;;6.65;1.25;;;;;;;10.56;85.22;100593.25;7400977;19;19919;-70
2023/10/14 05:45:46;;;;;;;9.93;1.60;;;;;;;10.51;84.81;100588.41;7401829;19;19982;-70
2023/10/14 05:48:14;;;;;;;10.27;1.45;;;;;;;10.48;85.13;100598.72;7402559;19;19923;-71
2023/10/14 05:50:43;;;;;;;11.35;1.95;;;;;;;10.44;85.46;100606.31;7401070;19;19926;-70
2023/10/14 05:53:13;;;;;;;6.05;1.98;;;;;;;10.36;85.44;100609.91;7399834;19;20070;-70
2023/10/14 05:55:44;;;;;;;8.48;1.50;;;;;;;10.34;85.44;100619.19;7401047;19;19918;-71
2023/10/14 05:58:14;;;;;;;9.95;1.15;;;;;;;10.28;85.04;100622.59;7402623;19;19922;-70
2023/10/14 06:00:45;;;;;;;4.35;1.25;;;;;;;10.25;84.66;100629.19;7401279;19;19926;-70
2023/10/14 06:03:17;;;;;;;7.30;1.15;;;;;;;10.24;85.18;100634.75;7401534;19;19911;-71
2023/10/14 06:05:45;;;;;;;5.30;0.85;;;;;;;10.24;84.50;100642.81;7401722;19;19918;-70
2023/10/14 06:08:20;;;;;;;6.55;1.35;;;;;;;10.22;84.07;100651.09;7401182;19;19924;-70
2023/10/14 06:10:48;;;;;;;9.35;1.30;;;;;;;10.20;84.06;100653.13;7401629;19;19935;-70
2023/10/14 06:13:17;;;;;;;8.27;1.20;;;;;;;10.21;84.37;100660.19;7401185;19;19997;-70
2023/10/14 06:15:48;;;;;;;4.60;1.45;;;;;;;10.22;83.94;100663.72;7401790;19;19918;-70
2023/10/14 06:18:17;;;;;;;4.80;1.17;;;;;;;10.22;84.35;100675.34;7400988;19;19915;-70
2023/10/14 06:20:47;;;;;;;6.68;1.38;;;;;;;10.22;84.08;100682.56;7401229;19;19923;-70
2023/10/14 06:23:15;;;;;;;7.43;0.98;;;;;;;10.22;83.85;100690.66;7400348;19;19911;-70
2023/10/14 06:25:44;;;;;;;6.10;0.98;;;;;;;10.23;83.91;100692.28;7401033;19;20345;-70
2023/10/14 06:28:13;;;;;;;8.20;1.10;;;;;;;10.22;83.35;100688.78;7401059;19;19981;-70
2023/10/14 06:30:43;;;;;;;6.43;1.10;;;;;;;10.23;83.54;100698.53;7401274;19;20561;-71
2023/10/14 06:33:14;;;;;;;10.68;1.00;;;;;;;10.25;82.88;100717.19;7401453;19;19994;-70
2023/10/14 06:35:45;;;;;;;6.43;1.10;;;;;;;10.25;83.12;100709.97;7400875;19;20370;-70
2023/10/14 06:38:17;;;;;;;6.15;1.40;;;;;;;10.28;82.98;100714.13;7400672;19;19975;-70
2023/10/14 06:40:52;;;;;;;6.45;1.25;;;;;;;10.31;82.70;100722.69;7400001;19;19922;-71
2023/10/14 06:43:22;;;;;;;12.77;1.45;;;;;;;10.34;82.52;100721.50;7400987;19;20299;-70
2023/10/14 06:45:51;;;;;;;7.35;1.23;;;;;;;10.37;82.29;100727.38;7400558;19;20241;-70
2023/10/14 06:48:22;;;;;;;11.23;1.63;;;;;;;10.38;81.36;100736.28;7400848;19;19919;-70
2023/10/14 06:50:54;;;;;;;4.40;1.08;;;;;;;10.41;81.58;100735.94;7399922;19;19951;-71
2023/10/14 06:53:27;;;;;;;10.95;1.10;;;;;;;10.46;81.40;100741.63;7408128;19;20228;-70
2023/10/14 06:55:56;;;;;;;8.05;0.98;;;;;;;10.48;81.43;100745.00;7414803;19;19919;-70
2023/10/14 06:58:27;;;;;;;8.52;0.98;;;;;;;10.52;80.65;100753.53;7414302;19;19918;-70
2023/10/14 07:00:59;;;;;;;5.05;1.42;;;;;;;10.57;80.71;100756.53;7414154;19;20377;-71
2023/10/14 07:03:31;;;;;;;13.00;1.50;;;;;;;10.62;80.81;100762.19;7413689;19;19915;-71
2023/10/14 07:05:59;;;;;;;7.25;1.05;;;;;;;10.64;80.63;100766.41;7413595;19;19923;-70
2023/10/14 07:08:29;;;;;;;6.30;0.95;;;;;;;10.69;80.14;100769.41;7413308;19;19915;-70
2023/10/14 07:11:00;;;;;;;9.35;1.83;;;;;;;10.74;80.38;100780.44;7414431;19;19982;-70
2023/10/14 07:13:30;;;;;;;4.18;1.20;;;;;;;10.75;80.51;100782.13;7412988;19;19926;-70
2023/10/14 07:16:06;;;;;;;9.20;1.02;;;;;;;10.78;80.26;100795.28;7413900;19;19926;-70
2023/10/14 07:18:38;;;;;;;6.03;1.15;;;;;;;10.80;80.03;100793.22;7413517;19;19919;-70
2023/10/14 07:21:12;;;;;;;8.98;1.13;;;;;;;10.83;80.08;100789.31;7412701;19;19982;-70
2023/10/14 07:23:41;;;;;;;6.68;1.30;;;;;;;10.86;80.48;100791.66;7413540;19;19939;-70
2023/10/14 07:26:11;;;;;;;7.40;1.35;;;;;;;10.88;79.68;100798.53;7412806;19;19957;-70
2023/10/14 07:28:43;;;;;;;6.07;1.30;;;;;;;10.93;79.71;100790.75;7412860;19;19988;-70
2023/10/14 07:31:12;;;;;;;11.15;1.35;;;;;;;10.97;79.66;100802.00;7412383;19;19978;-70
2023/10/14 07:33:44;;;;;;;8.85;1.10;;;;;;;11.01;79.48;100813.25;7413012;19;19924;-70
2023/10/14 07:36:12;;;;;;;18.83;2.03;;;;;;;11.04;79.67;100815.63;7411309;19;19918;-71
2023/10/14 07:38:42;;;;;;;6.40;1.20;;;;;;;11.06;79.75;100825.19;7412777;19;19925;-70
2023/10/14 07:41:11;;;;;;;5.80;1.38;;;;;;;11.10;79.34;100829.19;7412272;19;19915;-70
2023/10/14 07:43:40;;;;;;;3.97;1.15;;;;;;;11.12;79.70;100832.56;7412474;19;20399;-70
2023/10/14 07:46:09;;;;;;;5.43;0.90;;;;;;;11.17;79.88;100832.00;7412417;19;19919;-70
2023/10/14 07:48:40;;;;;;;6.90;1.25;;;;;;;11.21;79.25;100846.81;7411436;19;19943;-70
2023/10/14 07:51:11;;;;;;;7.28;1.25;;;;;;;11.27;79.21;100848.75;7411965;19;19914;-70
2023/10/14 07:53:40;;;;;;;15.57;2.42;;;;;;;11.32;78.87;100846.34;7411553;19;19914;-70
2023/10/14 07:56:08;;;;;;;6.30;1.70;;;;;;;11.39;78.36;100850.84;7411786;19;19935;-70
2023/10/14 07:58:38;;;;;;;6.68;1.73;;;;;;;11.47;78.34;100854.50;7410984;19;19922;-70
2023/10/14 08:01:09;;;;;;;7.05;1.00;;;;;;;11.54;78.06;100858.97;7411699;19;20256;-70
2023/10/14 08:03:38;;;;;;;4.90;1.00;;;;;;;11.61;77.81;100859.06;7409309;19;19922;-71
2023/10/14 08:06:17;;;;;;;5.43;1.23;;;;;;;11.68;76.31;100858.16;7402896;19;19925;-70
2023/10/14 08:08:47;;;;;;;5.03;1.10;;;;;;;11.77;75.87;100867.03;7404029;19;19926;-70
2023/10/14 08:11:17;;;;;;;8.30;1.27;;;;;;;11.86;76.19;100862.41;7403451;19;19918;-71
2023/10/14 08:13:45;;;;;;;9.77;1.67;;;;;;;11.95;73.31;100850.47;7403601;19;19915;-70
2023/10/14 08:16:15;;;;;;;8.55;1.23;;;;;;;11.97;74.67;100880.81;7402812;19;19919;-70
2023/10/14 08:18:44;;;;;;;7.72;1.27;;;;;;;11.96;74.47;100893.47;7402504;19;19980;-70
2023/10/14 08:21:16;;;;;;;7.63;1.63;;;;;;;11.99;74.73;100895.81;7402650;19;19923;-70
2023/10/14 08:23:44;;;;;;;9.23;1.50;;;;;;;12.01;74.97;100895.63;7403350;19;19926;-70
2023/10/14 08:26:16;;;;;;;7.13;1.30;;;;;;;12.03;74.56;100894.44;7402927;19;19939;-70
2023/10/14 08:28:44;;;;;;;;;;;;;;;11.99;73.94;100900.38;7405907;19;19928;-70
2023/10/14 08:31:13;;;;;;;10.57;1.42;;;;;;;12.08;73.35;100910.06;7402878;19;19925;-70
2023/10/14 08:33:42;;;;;;;16.45;2.33;;;;;;;12.12;74.22;100916.78;7403206;19;19923;-70
2023/10/14 08:36:10;;;;;;;8.85;1.25;;;;;;;12.16;74.23;100918.09;7402972;19;19914;-70
2023/10/14 08:38:43;;;;;;;7.18;1.25;;;;;;;12.23;73.00;100919.00;7402995;19;19951;-70
2023/10/14 08:41:16;;;;;;;4.63;1.00;;;;;;;12.29;72.93;100918.28;7403794;19;19922;-71
2023/10/14 08:43:49;;;;;;;10.32;2.03;;;;;;;12.36;74.05;100930.00;7403044;19;19926;-70
2023/10/14 08:46:23;;;;;;;5.88;1.13;;;;;;;12.41;71.30;100946.47;7403635;19;20011;-70
2023/10/14 08:48:54;;;;;;;4.97;0.85;;;;;;;12.45;72.05;100923.47;7402693;19;19930;-70
2023/10/14 08:51:27;;;;;;;9.00;1.70;;;;;;;12.50;71.55;100969.69;7403206;19;19923;-70
2023/10/14 08:53:59;;;;;;;6.45;0.95;;;;;;;12.56;71.45;100941.06;7402693;19;20376;-70
2023/10/14 08:56:27;;;;;;;9.85;1.27;;;;;;;12.59;71.92;100946.09;7403720;19;19923;-70
2023/10/14 08:58:57;;;;;;;5.28;1.00;;;;;;;12.61;71.63;100955.69;7402608;19;19934;-71
2023/10/14 09:01:26;;;;;;;6.43;1.40;;;;;;;12.64;71.77;100966.09;7403150;19;19923;-70
2023/10/14 09:03:54;;;;;;;6.32;1.10;;;;;;;12.65;70.52;100948.88;7402830;19;20317;-70
2023/10/14 09:06:24;;;;;;;6.38;1.02;;;;;;;12.71;71.32;100950.00;7402610;19;19954;-70
2023/10/14 09:08:53;;;;;;;8.80;1.13;;;;;;;12.74;71.56;100955.84;7402883;19;20323;-70
2023/10/14 09:11:33;;;;;;;6.05;1.67;;;;;;;12.77;69.90;100970.03;7402743;19;19914;-71
2023/10/14 09:14:06;;;;;;;8.38;1.30;;;;;;;12.81;69.58;100957.81;7403412;19;20015;-70
2023/10/14 09:16:36;;;;;;;7.38;0.90;;;;;;;12.89;70.91;100960.41;7401346;19;20532;-70
2023/10/14 09:19:05;;;;;;;7.13;0.93;;;;;;;12.94;70.43;100964.22;7402263;19;20681;-70
2023/10/14 09:21:34;;;;;;;8.50;1.05;;;;;;;13.00;71.04;100966.16;7402403;19;19925;-70
2023/10/14 09:24:08;;;;;;;7.90;1.13;;;;;;;13.07;69.58;100974.34;7402546;19;19918;-70
2023/10/14 09:26:46;;;;;;;3.90;0.85;;;;;;;13.09;68.76;100970.41;7402537;19;19990;-70
2023/10/14 09:29:14;;;;;;;6.20;1.35;;;;;;;13.15;69.07;100979.69;7401920;19;20364;-70
2023/10/14 09:31:47;;;;;;;8.52;0.93;;;;;;;13.20;69.79;100979.94;7402600;19;20333;-71
2023/10/14 09:34:24;;;;;;;4.72;0.63;;;;;;;13.23;67.17;100962.47;7401919;19;19918;-70
2023/10/14 09:36:55;;;;;;;6.75;1.20;;;;;;;13.32;68.61;100981.13;7402657;19;19915;-71
2023/10/14 09:39:28;;;;;;;5.03;1.02;;;;;;;13.42;68.02;100978.06;7401999;19;19918;-71
2023/10/14 09:42:01;;;;;;;7.45;1.15;;;;;;;13.53;66.43;100982.97;7402371;19;19924;-70
2023/10/14 09:44:31;;;;;;;6.22;1.00;;;;;;;13.66;67.80;100987.69;7402077;19;19914;-70
2023/10/14 09:47:03;;;;;;;7.28;1.23;;;;;;;13.82;66.84;101003.66;7402459;19;19948;-70
2023/10/14 09:49:35;;;;;;;7.85;1.02;;;;;;;13.97;65.86;101004.44;7402246;19;19926;-70
2023/10/14 09:52:06;;;;;;;5.05;0.90;;;;;;;14.03;66.22;101012.59;7401858;19;19921;-70
2023/10/14 09:54:37;;;;;;;8.82;2.00;;;;;;;13.94;67.93;101032.72;7401984;19;20677;-70
2023/10/14 09:57:12;;;;;;;6.65;1.10;;;;;;;13.55;69.75;101035.03;7401215;19;20477;-71
2023/10/14 09:59:44;;;;;;;2.55;0.73;;;;;;;12.97;67.55;101026.03;7401333;19;19922;-70
2023/10/14 10:02:14;;;;;;;6.45;2.05;;;;;;;12.44;71.08;101018.22;7401430;19;19970;-70
2023/10/14 10:04:47;;;;;;;7.15;1.50;;;;;;;12.04;72.13;101032.94;7401751;19;20291;-70
2023/10/14 10:07:31;;;;;;;5.70;1.55;;;;;;;11.83;74.07;101041.75;7402242;19;19926;-70
2023/10/14 10:10:19;;;;;;;9.68;1.75;;;;;;;11.55;77.32;101041.44;7401232;19;19918;-70
2023/10/14 10:12:55;;;;;;;7.28;1.13;;;;;;;11.50;77.31;101042.97;7400862;19;20463;-70
2023/10/14 10:15:25;;;;;;;9.07;1.38;;;;;;;11.54;75.84;101026.25;7401992;19;19919;-70
2023/10/14 10:17:58;;;;;;;8.32;2.13;;;;;;;11.74;77.26;101040.97;7400739;19;19918;-71
2023/10/14 10:20:35;;;;;;;6.88;1.42;;;;;;;11.98;77.82;101036.41;7401621;19;19922;-71
2023/10/14 10:23:04;;;;;;;13.23;1.60;;;;;;;12.20;75.94;101038.22;7401042;19;19914;-71
2023/10/14 10:25:53;;;;;;;6.18;1.20;;;;;;;12.35;74.04;101039.06;7401768;19;19918;-70
2023/10/14 10:28:43;;;;;;;7.15;1.73;;;;;;;12.39;75.36;101043.09;7399037;19;19974;-70
2023/10/14 10:31:16;;;;;;;5.10;1.40;;;;;;;12.62;72.85;101051.97;7401076;19;19984;-70
2023/10/14 10:33:54;;;;;;;11.32;1.27;;;;;;;12.72;72.79;101052.53;7401340;19;19937;-70
2023/10/14 10:36:24;;;;;;;;;;;;;;;12.68;73.12;101053.09;7403765;19;19915;-70
2023/10/14 10:38:57;;;;;;;5.40;1.52;;;;;;;12.71;72.97;101067.06;7400804;19;19959;-70
2023/10/14 10:41:30;;;;;;;9.27;1.52;;;;;;;12.61;71.90;101076.47;7400618;19;19919;-70
2023/10/14 10:44:09;;;;;;;10.00;1.25;;;;;;;12.48;70.06;101070.84;7399251;19;19918;-70
2023/10/14 10:46:44;;;;;;;6.70;0.88;;;;;;;12.38;74.06;101100.03;7400646;19;20265;-70
2023/10/14 10:49:14;;;;;;;7.70;1.10;;;;;;;12.20;74.25;101101.19;7399807;19;20337;-70
2023/10/14 10:51:53;;;;;;;3.65;0.63;;;;;;;11.95;72.41;101099.69;7400834;19;19922;-70
2023/10/14 10:54:22;;;;;;;4.30;1.17;;;;;;;11.89;72.83;101091.47;7400591;19;19914;-71
2023/10/14 10:56:51;;;;;;;3.75;0.88;;;;;;;12.10;71.19;101083.53;7399276;19;19923;-70
2023/10/14 10:59:22;;;;;;;2.65;0.73;;;;;;;12.31;68.58;101089.09;7399373;19;19923;-70
2023/10/14 11:01:52;;;;;;;;;;;;;;;12.51;70.07;101082.13;7402018;19;19929;-70
2023/10/14 11:04:20;;;;;;;;;;;;;;;12.74;69.08;101077.50;7401689;19;19985;-70
2023/10/14 11:06:51;;;;;;;5.50;1.00;;;;;;;13.01;70.47;101092.25;7399647;19;19957;-70
2023/10/14 11:09:20;;;;;;;6.30;1.08;;;;;;;13.20;70.02;101085.44;7399542;19;20290;-70
2023/10/14 11:11:48;;;;;;;6.47;0.75;;;;;;;13.37;68.92;101084.22;7398173;19;20382;-70
2023/10/14 11:14:19;;;;;;;3.88;0.80;;;;;;;13.52;68.50;101076.88;7399016;19;20014;-70
2023/10/14 11:16:52;;;;;;;3.97;0.98;;;;;;;13.70;65.83;101081.03;7398681;19;19915;-70
2023/10/14 11:19:21;;;;;;;7.13;0.90;;;;;;;13.79;67.09;101085.28;7398287;19;19915;-70
2023/10/14 11:21:51;;;;;;;6.10;1.45;;;;;;;13.95;66.08;101085.03;7399498;19;19953;-70
2023/10/14 11:24:19;;;;;;;5.70;1.02;;;;;;;14.13;65.51;101090.81;7399039;19;20040;-70
2023/10/14 11:26:49;;;;;;;5.53;0.90;;;;;;;14.36;65.65;101098.78;7398448;19;19919;-70
2023/10/14 11:29:18;;;;;;;5.43;1.45;;;;;;;14.59;64.23;101101.22;7398488;19;19929;-70
2023/10/14 11:31:53;;;;;;;4.15;1.00;;;;;;;14.85;63.18;101101.41;7398585;19;19936;-70
2023/10/14 11:34:22;;;;;;;8.75;0.80;;;;;;;14.60;64.38;101105.63;7398407;19;19947;-71
2023/10/14 11:36:51;;;;;;;6.97;0.98;;;;;;;14.10;64.54;101118.31;7398570;19;19944;-70
2023/10/14 11:39:21;;;;;;;6.38;1.00;;;;;;;13.58;65.53;101137.53;7398583;19;19922;-70
2023/10/14 11:41:50;;;;;;;5.70;1.52;;;;;;;13.18;66.57;101123.50;7404433;19;19918;-70
2023/10/14 11:44:20;;;;;;;6.60;1.15;;;;;;;12.95;67.57;101136.25;7404163;19;19982;-70
2023/10/14 11:46:51;;;;;;;6.22;1.42;;;;;;;12.78;68.02;101131.19;7404401;19;19970;-71
2023/10/14 11:49:20;;;;;;;5.38;0.80;;;;;;;12.73;69.52;101129.88;7403858;19;19919;-70
2023/10/14 11:51:49;;;;;;;5.15;1.02;;;;;;;12.70;69.48;101116.75;7404323;19;19918;-71
2023/10/14 11:54:18;;;;;;;6.50;0.95;;;;;;;12.62;69.10;101108.72;7405046;19;19922;-70
2023/10/14 11:56:47;;;;;;;9.30;1.30;;;;;;;12.54;69.48;101118.78;7403167;19;19918;-70